^^
Station Historical Data
Daily Summary for December 23, 2017 Units:  Both    English   Metric
« Previous Day
Next Day »
Daily Weekly Monthly Yearly Custom
  High: Low: Average:
Temperature: TemperatureF °F /  -17.8 °C 64.6 °F /  18.1 °C 78.1 °F /  25.6 °C
Dew Point: DewpointF °F /  -17.8 °C 29.5 °F /  -1.4 °C 33.7 °F /  0.9 °C
Humidity: Humidity% 12% 21%
Wind Speed: WindSpeedMPHmph /  0km/h - 2.2mph /  3.5km/h
Wind Gust: WindSpeedGustMPHmph /  0km/h - -
Wind- - South
Pressure: PressureIn in /  0 hPa 30.01 in /  1016.1 hPa -
Precipitation: 0.00 in /  0 mm    
Historical Graphs
 
 
Tabular Data for December 23, 2017
Time Temperature Dew Point Pressure Wind Wind Speed Wind Gust Humidity Rainfall Rate (Hourly) solar Conditions
TemperatureF °F /  -17.8 °C DewpointF °F /  -17.8 °C PressureInin /  0hPa Calm     Humidity% HourlyPrecipInin /  0mm SolarRadiationWatts/m^2 W/m2 Conditions
00:03 70.5 °F /  21.4 °C 36.7 °F /  2.6 °C 30.16in /  1021.2hPa Calm     29% 0.00in /  0mm 0.0 W/m2
00:09 70.3 °F /  21.3 °C 36.5 °F /  2.5 °C 30.16in /  1021.2hPa Calm     29% 0.00in /  0mm 0.0 W/m2
00:14 70.0 °F /  21.1 °C 36.3 °F /  2.4 °C 30.17in /  1021.6hPa Calm   2.0mph /  3.2km/h 29% 0.00in /  0mm 0.0 W/m2
00:20 69.8 °F /  21 °C 37.0 °F /  2.8 °C 30.17in /  1021.6hPa Calm   1.0mph /  1.6km/h 30% 0.00in /  0mm 0.0 W/m2
00:26 69.6 °F /  20.9 °C 36.0 °F /  2.2 °C 30.16in /  1021.2hPa ESE 2.0mph /  3.2km/h 2.0mph /  3.2km/h 29% 0.00in /  0mm 0.0 W/m2
00:41 69.3 °F /  20.7 °C 35.6 °F /  2 °C 30.16in /  1021.2hPa Calm   3.0mph /  4.8km/h 29% 0.00in /  0mm 0.0 W/m2
00:51 68.9 °F /  20.5 °C 36.1 °F /  2.3 °C 30.16in /  1021.2hPa South 0.9mph /  1.4km/h 1.0mph /  1.6km/h 30% 0.00in /  0mm 0.0 W/m2
00:56 68.7 °F /  20.4 °C 36.0 °F /  2.2 °C 30.15in /  1020.9hPa SE 0.9mph /  1.4km/h 1.0mph /  1.6km/h 30% 0.00in /  0mm 0.0 W/m2
01:06 68.5 °F /  20.3 °C 35.1 °F /  1.7 °C 30.15in /  1020.9hPa Calm   1.0mph /  1.6km/h 29% 0.00in /  0mm 0.0 W/m2
01:12 68.4 °F /  20.2 °C 34.0 °F /  1.1 °C 30.15in /  1020.9hPa Calm   2.0mph /  3.2km/h 28% 0.00in /  0mm 0.0 W/m2
01:15 68.4 °F /  20.2 °C 34.0 °F /  1.1 °C 30.15in /  1020.9hPa Calm   1.0mph /  1.6km/h 28% 0.00in /  0mm 0.0 W/m2
01:20 68.2 °F /  20.1 °C 33.8 °F /  1 °C 30.14in /  1020.5hPa Calm   1.0mph /  1.6km/h 28% 0.00in /  0mm 0.0 W/m2
01:25 68.0 °F /  20 °C 31.8 °F /  -0.1 °C 30.14in /  1020.5hPa South 0.9mph /  1.4km/h 2.0mph /  3.2km/h 26% 0.00in /  0mm 0.0 W/m2
01:30 68.0 °F /  20 °C 30.9 °F /  -0.6 °C 30.14in /  1020.5hPa South 2.0mph /  3.2km/h 3.0mph /  4.8km/h 25% 0.00in /  0mm 0.0 W/m2
01:35 68.2 °F /  20.1 °C 30.0 °F /  -1.1 °C 30.14in /  1020.5hPa Calm   2.0mph /  3.2km/h 24% 0.00in /  0mm 0.0 W/m2
01:40 68.4 °F /  20.2 °C 30.2 °F /  -1 °C 30.14in /  1020.5hPa Calm   1.0mph /  1.6km/h 24% 0.00in /  0mm 0.0 W/m2
01:45 68.4 °F /  20.2 °C 31.1 °F /  -0.5 °C 30.14in /  1020.5hPa Calm   1.0mph /  1.6km/h 25% 0.00in /  0mm 0.0 W/m2
01:51 68.4 °F /  20.2 °C 30.2 °F /  -1 °C 30.14in /  1020.5hPa Calm   3.0mph /  4.8km/h 24% 0.00in /  0mm 0.0 W/m2
01:56 68.5 °F /  20.3 °C 31.3 °F /  -0.4 °C 30.13in /  1020.2hPa WSW 2.0mph /  3.2km/h 2.0mph /  3.2km/h 25% 0.00in /  0mm 0.0 W/m2
02:02 68.5 °F /  20.3 °C 32.4 °F /  0.2 °C 30.13in /  1020.2hPa Calm   1.0mph /  1.6km/h 26% 0.00in /  0mm 0.0 W/m2
02:07 68.5 °F /  20.3 °C 32.4 °F /  0.2 °C 30.13in /  1020.2hPa Calm   1.0mph /  1.6km/h 26% 0.00in /  0mm 0.0 W/m2
02:12 68.4 °F /  20.2 °C 34.0 °F /  1.1 °C 30.13in /  1020.2hPa Calm   1.0mph /  1.6km/h 28% 0.00in /  0mm 0.0 W/m2
02:17 68.4 °F /  20.2 °C 34.0 °F /  1.1 °C 30.13in /  1020.2hPa Calm   1.0mph /  1.6km/h 28% 0.00in /  0mm 0.0 W/m2
02:22 68.2 °F /  20.1 °C 33.8 °F /  1 °C 30.13in /  1020.2hPa Calm     28% 0.00in /  0mm 0.0 W/m2
02:28 67.8 °F /  19.9 °C 33.4 °F /  0.8 °C 30.13in /  1020.2hPa South 6.0mph /  9.7km/h 6.0mph /  9.7km/h 28% 0.00in /  0mm 0.0 W/m2
02:33 67.8 °F /  19.9 °C 29.7 °F /  -1.3 °C 30.13in /  1020.2hPa SE 2.0mph /  3.2km/h 4.0mph /  6.4km/h 24% 0.00in /  0mm 0.0 W/m2
02:38 68.2 °F /  20.1 °C 31.1 °F /  -0.5 °C 30.13in /  1020.2hPa SE 2.9mph /  4.7km/h 6.0mph /  9.7km/h 25% 0.00in /  0mm 0.0 W/m2
02:44 68.4 °F /  20.2 °C 32.2 °F /  0.1 °C 30.13in /  1020.2hPa Calm   4.0mph /  6.4km/h 26% 0.00in /  0mm 0.0 W/m2
02:50 68.5 °F /  20.3 °C 32.4 °F /  0.2 °C 30.13in /  1020.2hPa ESE 2.0mph /  3.2km/h 4.0mph /  6.4km/h 26% 0.00in /  0mm 0.0 W/m2
02:54 68.4 °F /  20.2 °C 33.1 °F /  0.6 °C 30.12in /  1019.9hPa SW 2.0mph /  3.2km/h 6.0mph /  9.7km/h 27% 0.00in /  0mm 0.0 W/m2
03:00 68.4 °F /  20.2 °C 33.1 °F /  0.6 °C 30.13in /  1020.2hPa SW 2.9mph /  4.7km/h 6.0mph /  9.7km/h 27% 0.00in /  0mm 0.0 W/m2
03:03 68.4 °F /  20.2 °C 34.0 °F /  1.1 °C 30.13in /  1020.2hPa Calm   8.0mph /  12.9km/h 28% 0.00in /  0mm 0.0 W/m2
03:13 67.8 °F /  19.9 °C 33.4 °F /  0.8 °C 30.12in /  1019.9hPa ESE 4.9mph /  7.9km/h 7.0mph /  11.3km/h 28% 0.00in /  0mm 0.0 W/m2
03:18 67.8 °F /  19.9 °C 33.4 °F /  0.8 °C 30.12in /  1019.9hPa SSW 0.9mph /  1.4km/h 8.0mph /  12.9km/h 28% 0.00in /  0mm 0.0 W/m2
03:23 67.5 °F /  19.7 °C 33.3 °F /  0.7 °C 30.11in /  1019.5hPa SSW 4.9mph /  7.9km/h 8.0mph /  12.9km/h 28% 0.00in /  0mm 0.0 W/m2
03:28 67.3 °F /  19.6 °C 34.0 °F /  1.1 °C 30.12in /  1019.9hPa South 6.9mph /  11.1km/h 7.0mph /  11.3km/h 29% 0.00in /  0mm 0.0 W/m2
03:34 67.1 °F /  19.5 °C 33.8 °F /  1 °C 30.12in /  1019.9hPa Calm   3.0mph /  4.8km/h 29% 0.00in /  0mm 0.0 W/m2
03:39 66.9 °F /  19.4 °C 33.6 °F /  0.9 °C 30.12in /  1019.9hPa West 0.9mph /  1.4km/h 1.0mph /  1.6km/h 29% 0.00in /  0mm 0.0 W/m2
03:44 66.7 °F /  19.3 °C 34.3 °F /  1.3 °C 30.12in /  1019.9hPa Calm     30% 0.00in /  0mm 0.0 W/m2
03:47 66.7 °F /  19.3 °C 34.3 °F /  1.3 °C 30.13in /  1020.2hPa WNW 2.0mph /  3.2km/h 3.0mph /  4.8km/h 30% 0.00in /  0mm 0.0 W/m2
03:52 66.6 °F /  19.2 °C 35.1 °F /  1.7 °C 30.13in /  1020.2hPa Calm   2.0mph /  3.2km/h 31% 0.00in /  0mm 0.0 W/m2
03:57 66.4 °F /  19.1 °C 34.9 °F /  1.6 °C 30.12in /  1019.9hPa Calm     31% 0.00in /  0mm 0.0 W/m2
04:02 66.0 °F /  18.9 °C 34.5 °F /  1.4 °C 30.12in /  1019.9hPa Calm   1.0mph /  1.6km/h 31% 0.00in /  0mm 0.0 W/m2
04:07 65.8 °F /  18.8 °C 33.6 °F /  0.9 °C 30.12in /  1019.9hPa Calm   5.0mph /  8km/h 30% 0.00in /  0mm 0.0 W/m2
04:08 65.8 °F /  18.8 °C 33.6 °F /  0.9 °C 30.12in /  1019.9hPa Calm   5.0mph /  8km/h 30% 0.00in /  0mm 0.0 W/m2
04:13 65.8 °F /  18.8 °C 34.3 °F /  1.3 °C 30.13in /  1020.2hPa Calm   1.0mph /  1.6km/h 31% 0.00in /  0mm 0.0 W/m2
04:16 65.8 °F /  18.8 °C 34.3 °F /  1.3 °C 30.13in /  1020.2hPa West 0.9mph /  1.4km/h 2.0mph /  3.2km/h 31% 0.00in /  0mm 0.0 W/m2
04:23 65.7 °F /  18.7 °C 34.2 °F /  1.2 °C 30.13in /  1020.2hPa West 0.9mph /  1.4km/h 1.0mph /  1.6km/h 31% 0.00in /  0mm 0.0 W/m2
04:28 65.7 °F /  18.7 °C 34.2 °F /  1.2 °C 30.13in /  1020.2hPa Calm   2.0mph /  3.2km/h 31% 0.00in /  0mm 0.0 W/m2
04:43 66.2 °F /  19 °C 33.1 °F /  0.6 °C 30.13in /  1020.2hPa SSW 2.0mph /  3.2km/h 4.0mph /  6.4km/h 29% 0.00in /  0mm 0.0 W/m2
04:45 66.4 °F /  19.1 °C 33.1 °F /  0.6 °C 30.13in /  1020.2hPa Calm   4.0mph /  6.4km/h 29% 0.00in /  0mm 0.0 W/m2
04:50 66.4 °F /  19.1 °C 33.1 °F /  0.6 °C 30.13in /  1020.2hPa Calm   6.0mph /  9.7km/h 29% 0.00in /  0mm 0.0 W/m2
04:55 66.4 °F /  19.1 °C 34.0 °F /  1.1 °C 30.13in /  1020.2hPa SSW 0.9mph /  1.4km/h 4.0mph /  6.4km/h 30% 0.00in /  0mm 0.0 W/m2
05:00 66.4 °F /  19.1 °C 33.1 °F /  0.6 °C 30.13in /  1020.2hPa Calm   3.0mph /  4.8km/h 29% 0.00in /  0mm 0.0 W/m2
05:05 66.2 °F /  19 °C 33.8 °F /  1 °C 30.13in /  1020.2hPa SW 0.9mph /  1.4km/h 6.0mph /  9.7km/h 30% 0.00in /  0mm 0.0 W/m2
05:12 66.2 °F /  19 °C 33.8 °F /  1 °C 30.13in /  1020.2hPa Calm   4.0mph /  6.4km/h 30% 0.00in /  0mm 0.0 W/m2
05:19 66.2 °F /  19 °C 33.8 °F /  1 °C 30.13in /  1020.2hPa South 2.0mph /  3.2km/h 3.0mph /  4.8km/h 30% 0.00in /  0mm 0.0 W/m2
05:24 66.2 °F /  19 °C 33.8 °F /  1 °C 30.13in /  1020.2hPa SSW 2.0mph /  3.2km/h 6.0mph /  9.7km/h 30% 0.00in /  0mm 0.0 W/m2
05:29 66.0 °F /  18.9 °C 34.5 °F /  1.4 °C 30.13in /  1020.2hPa Calm   5.0mph /  8km/h 31% 0.00in /  0mm 0.0 W/m2
05:34 66.0 °F /  18.9 °C 34.5 °F /  1.4 °C 30.13in /  1020.2hPa Calm   3.0mph /  4.8km/h 31% 0.00in /  0mm 0.0 W/m2
05:39 65.8 °F /  18.8 °C 35.2 °F /  1.8 °C 30.13in /  1020.2hPa SSW 0.9mph /  1.4km/h 4.0mph /  6.4km/h 32% 0.00in /  0mm 0.0 W/m2
05:44 65.7 °F /  18.7 °C 33.4 °F /  0.8 °C 30.13in /  1020.2hPa Calm   3.0mph /  4.8km/h 30% 0.00in /  0mm 0.0 W/m2
05:49 65.7 °F /  18.7 °C 34.2 °F /  1.2 °C 30.13in /  1020.2hPa West 0.9mph /  1.4km/h 3.0mph /  4.8km/h 31% 0.00in /  0mm 0.0 W/m2
05:55 65.5 °F /  18.6 °C 34.0 °F /  1.1 °C 30.13in /  1020.2hPa NW 0.9mph /  1.4km/h 1.0mph /  1.6km/h 31% 0.00in /  0mm 0.0 W/m2
06:00 65.3 °F /  18.5 °C 35.4 °F /  1.9 °C 30.13in /  1020.2hPa Calm   1.0mph /  1.6km/h 33% 0.00in /  0mm 0.0 W/m2
06:10 64.8 °F /  18.2 °C 35.1 °F /  1.7 °C 30.14in /  1020.5hPa Calm     33% 0.00in /  0mm 0.0 W/m2
06:15 64.6 °F /  18.1 °C 29.8 °F /  -1.2 °C 30.13in /  1020.2hPa WSW 2.9mph /  4.7km/h 3.0mph /  4.8km/h 27% 0.00in /  0mm 7.0 W/m2
06:20 64.9 °F /  18.3 °C 33.6 °F /  0.9 °C 30.14in /  1020.5hPa NW 0.9mph /  1.4km/h 2.0mph /  3.2km/h 31% 0.00in /  0mm 11.0 W/m2
06:25 65.1 °F /  18.4 °C 32.0 °F /  0 °C 30.14in /  1020.5hPa Calm   2.0mph /  3.2km/h 29% 0.00in /  0mm 14.0 W/m2
06:30 65.1 °F /  18.4 °C 32.9 °F /  0.5 °C 30.15in /  1020.9hPa East 4.9mph /  7.9km/h 5.0mph /  8km/h 30% 0.00in /  0mm 18.0 W/m2
06:31 65.1 °F /  18.4 °C 30.4 °F /  -0.9 °C 30.15in /  1020.9hPa ENE 0.9mph /  1.4km/h 6.0mph /  9.7km/h 27% 0.00in /  0mm 18.0 W/m2
06:36 65.5 °F /  18.6 °C 30.6 °F /  -0.8 °C 30.14in /  1020.5hPa SSW 2.0mph /  3.2km/h 7.0mph /  11.3km/h 27% 0.00in /  0mm 19.0 W/m2
06:41 65.8 °F /  18.8 °C 30.0 °F /  -1.1 °C 30.15in /  1020.9hPa SSE 2.0mph /  3.2km/h 4.0mph /  6.4km/h 26% 0.00in /  0mm 21.0 W/m2
06:46 66.0 °F /  18.9 °C 31.1 °F /  -0.5 °C 30.15in /  1020.9hPa Calm   1.0mph /  1.6km/h 27% 0.00in /  0mm 23.0 W/m2
06:51 66.0 °F /  18.9 °C 30.2 °F /  -1 °C 30.15in /  1020.9hPa West 0.9mph /  1.4km/h 1.0mph /  1.6km/h 26% 0.00in /  0mm 25.0 W/m2
06:56 66.2 °F /  19 °C 30.4 °F /  -0.9 °C 30.15in /  1020.9hPa ESE 0.9mph /  1.4km/h 5.0mph /  8km/h 26% 0.00in /  0mm 28.0 W/m2
07:01 66.4 °F /  19.1 °C 29.5 °F /  -1.4 °C 30.15in /  1020.9hPa SE 2.0mph /  3.2km/h 2.0mph /  3.2km/h 25% 0.00in /  0mm 30.0 W/m2
07:06 66.7 °F /  19.3 °C 31.6 °F /  -0.2 °C 30.15in /  1020.9hPa WSW 2.0mph /  3.2km/h 2.0mph /  3.2km/h 27% 0.00in /  0mm 33.0 W/m2
07:11 66.9 °F /  19.4 °C 30.0 °F /  -1.1 °C 30.15in /  1020.9hPa Calm   2.0mph /  3.2km/h 25% 0.00in /  0mm 37.0 W/m2
07:16 67.5 °F /  19.7 °C 30.4 °F /  -0.9 °C 30.15in /  1020.9hPa Calm   3.0mph /  4.8km/h 25% 0.00in /  0mm 39.0 W/m2
07:21 67.6 °F /  19.8 °C 30.6 °F /  -0.8 °C 30.15in /  1020.9hPa ESE 2.9mph /  4.7km/h 5.0mph /  8km/h 25% 0.00in /  0mm 40.0 W/m2
07:26 68.0 °F /  20 °C 29.8 °F /  -1.2 °C 30.15in /  1020.9hPa Calm   4.0mph /  6.4km/h 24% 0.00in /  0mm 40.0 W/m2
07:32 68.2 °F /  20.1 °C 32.0 °F /  0 °C 30.15in /  1020.9hPa South 0.9mph /  1.4km/h 2.0mph /  3.2km/h 26% 0.00in /  0mm 33.0 W/m2
07:37 68.4 °F /  20.2 °C 31.1 °F /  -0.5 °C 30.15in /  1020.9hPa Calm   2.0mph /  3.2km/h 25% 0.00in /  0mm 39.0 W/m2
07:42 68.4 °F /  20.2 °C 31.1 °F /  -0.5 °C 30.15in /  1020.9hPa Calm   1.0mph /  1.6km/h 25% 0.00in /  0mm 88.0 W/m2
07:47 68.4 °F /  20.2 °C 32.2 °F /  0.1 °C 30.15in /  1020.9hPa SE 0.9mph /  1.4km/h 4.0mph /  6.4km/h 26% 0.00in /  0mm 113.0 W/m2
07:48 68.5 °F /  20.3 °C 31.3 °F /  -0.4 °C 30.15in /  1020.9hPa SE 0.9mph /  1.4km/h 6.0mph /  9.7km/h 25% 0.00in /  0mm 98.0 W/m2
07:53 68.7 °F /  20.4 °C 33.4 °F /  0.8 °C 30.15in /  1020.9hPa NE 0.9mph /  1.4km/h 1.0mph /  1.6km/h 27% 0.00in /  0mm 272.0 W/m2
08:03 70.0 °F /  21.1 °C 32.5 °F /  0.3 °C 30.15in /  1020.9hPa Calm   4.0mph /  6.4km/h 25% 0.00in /  0mm 448.0 W/m2
08:04 70.2 °F /  21.2 °C 30.6 °F /  -0.8 °C 30.15in /  1020.9hPa SW 0.9mph /  1.4km/h 4.0mph /  6.4km/h 23% 0.00in /  0mm 446.0 W/m2
08:09 71.1 °F /  21.7 °C 32.4 °F /  0.2 °C 30.15in /  1020.9hPa North 2.9mph /  4.7km/h 4.0mph /  6.4km/h 24% 0.00in /  0mm 466.0 W/m2
08:14 71.4 °F /  21.9 °C 33.8 °F /  1 °C 30.15in /  1020.9hPa WSW 2.0mph /  3.2km/h 3.0mph /  4.8km/h 25% 0.00in /  0mm 490.0 W/m2
08:20 71.8 °F /  22.1 °C 34.0 °F /  1.1 °C 30.15in /  1020.9hPa WSW 2.0mph /  3.2km/h 6.0mph /  9.7km/h 25% 0.00in /  0mm 515.0 W/m2
08:21 71.8 °F /  22.1 °C 33.1 °F /  0.6 °C 30.15in /  1020.9hPa Calm   5.0mph /  8km/h 24% 0.00in /  0mm 517.0 W/m2
08:26 72.1 °F /  22.3 °C 33.4 °F /  0.8 °C 30.15in /  1020.9hPa ESE 2.0mph /  3.2km/h 5.0mph /  8km/h 24% 0.00in /  0mm 540.0 W/m2
08:31 72.7 °F /  22.6 °C 33.8 °F /  1 °C 30.14in /  1020.5hPa Calm   4.0mph /  6.4km/h 24% 0.00in /  0mm 559.0 W/m2
08:36 73.2 °F /  22.9 °C 33.3 °F /  0.7 °C 30.15in /  1020.9hPa WSW 2.0mph /  3.2km/h 4.0mph /  6.4km/h 23% 0.00in /  0mm 570.0 W/m2
08:39 73.6 °F /  23.1 °C 34.5 °F /  1.4 °C 30.14in /  1020.5hPa SSE 4.9mph /  7.9km/h 5.0mph /  8km/h 24% 0.00in /  0mm 594.0 W/m2
08:44 73.9 °F /  23.3 °C 32.7 °F /  0.4 °C 30.14in /  1020.5hPa SSE 6.0mph /  9.7km/h 7.0mph /  11.3km/h 22% 0.00in /  0mm 608.0 W/m2
08:49 74.1 °F /  23.4 °C 34.0 °F /  1.1 °C 30.14in /  1020.5hPa SE 6.0mph /  9.7km/h 10.0mph /  16.1km/h 23% 0.00in /  0mm 624.0 W/m2
08:54 74.7 °F /  23.7 °C 34.3 °F /  1.3 °C 30.14in /  1020.5hPa SW 2.0mph /  3.2km/h 3.0mph /  4.8km/h 23% 0.00in /  0mm 652.0 W/m2
08:59 75.0 °F /  23.9 °C 32.4 °F /  0.2 °C 30.14in /  1020.5hPa NE 2.9mph /  4.7km/h 7.0mph /  11.3km/h 21% 0.00in /  0mm 682.0 W/m2
09:05 75.4 °F /  24.1 °C 34.0 °F /  1.1 °C 30.14in /  1020.5hPa SW 2.9mph /  4.7km/h 12.0mph /  19.3km/h 22% 0.00in /  0mm 705.0 W/m2
09:11 75.7 °F /  24.3 °C 34.2 °F /  1.2 °C 30.14in /  1020.5hPa NE 2.0mph /  3.2km/h 4.0mph /  6.4km/h 22% 0.00in /  0mm 652.0 W/m2
09:16 76.3 °F /  24.6 °C 33.4 °F /  0.8 °C 30.14in /  1020.5hPa Calm   5.0mph /  8km/h 21% 0.00in /  0mm 733.0 W/m2
09:21 76.6 °F /  24.8 °C 32.5 °F /  0.3 °C 30.14in /  1020.5hPa Calm   5.0mph /  8km/h 20% 0.00in /  0mm 710.0 W/m2
09:25 76.8 °F /  24.9 °C 34.0 °F /  1.1 °C 30.14in /  1020.5hPa SSW 2.9mph /  4.7km/h 3.0mph /  4.8km/h 21% 0.00in /  0mm 745.0 W/m2
09:30 77.4 °F /  25.2 °C 33.1 °F /  0.6 °C 30.14in /  1020.5hPa NNE 2.9mph /  4.7km/h 3.0mph /  4.8km/h 20% 0.00in /  0mm 809.0 W/m2
09:35 77.7 °F /  25.4 °C 32.2 °F /  0.1 °C 30.14in /  1020.5hPa Calm   5.0mph /  8km/h 19% 0.00in /  0mm 735.0 W/m2
09:40 78.1 °F /  25.6 °C 32.5 °F /  0.3 °C 30.14in /  1020.5hPa WSW 8.1mph /  13km/h 8.1mph /  13km/h 19% 0.00in /  0mm 663.0 W/m2
09:46 78.1 °F /  25.6 °C 31.1 °F /  -0.5 °C 30.14in /  1020.5hPa ESE 2.0mph /  3.2km/h 7.0mph /  11.3km/h 18% 0.00in /  0mm 821.0 W/m2
09:51 78.3 °F /  25.7 °C 32.5 °F /  0.3 °C 30.14in /  1020.5hPa SSE 6.0mph /  9.7km/h 8.0mph /  12.9km/h 19% 0.00in /  0mm 526.0 W/m2
09:53 78.4 °F /  25.8 °C 31.5 °F /  -0.3 °C 30.15in /  1020.9hPa SE 8.1mph /  13km/h 9.0mph /  14.5km/h 18% 0.00in /  0mm 923.0 W/m2
09:58 78.6 °F /  25.9 °C 31.6 °F /  -0.2 °C 30.14in /  1020.5hPa SSE 2.0mph /  3.2km/h 6.0mph /  9.7km/h 18% 0.00in /  0mm 789.0 W/m2
10:04 79.0 °F /  26.1 °C 31.8 °F /  -0.1 °C 30.14in /  1020.5hPa SSE 4.9mph /  7.9km/h 9.0mph /  14.5km/h 18% 0.00in /  0mm 874.0 W/m2
10:07 79.2 °F /  26.2 °C 30.6 °F /  -0.8 °C 30.14in /  1020.5hPa SE 4.0mph /  6.4km/h 6.0mph /  9.7km/h 17% 0.00in /  0mm 721.0 W/m2
10:12 79.3 °F /  26.3 °C 32.2 °F /  0.1 °C 30.14in /  1020.5hPa SSW 2.0mph /  3.2km/h 6.0mph /  9.7km/h 18% 0.00in /  0mm 647.0 W/m2
10:16 79.2 °F /  26.2 °C 32.0 °F /  0 °C 30.14in /  1020.5hPa ESE 0.9mph /  1.4km/h 8.0mph /  12.9km/h 18% 0.00in /  0mm 835.0 W/m2
10:21 79.7 °F /  26.5 °C 32.4 °F /  0.2 °C 30.14in /  1020.5hPa ESE 2.0mph /  3.2km/h 8.0mph /  12.9km/h 18% 0.00in /  0mm 763.0 W/m2
10:25 80.2 °F /  26.8 °C 31.5 °F /  -0.3 °C 30.14in /  1020.5hPa NE 2.0mph /  3.2km/h 3.0mph /  4.8km/h 17% 0.00in /  0mm 520.0 W/m2
10:30 80.4 °F /  26.9 °C 30.2 °F /  -1 °C 30.14in /  1020.5hPa SSE 2.9mph /  4.7km/h 6.0mph /  9.7km/h 16% 0.00in /  0mm 983.0 W/m2
10:35 80.8 °F /  27.1 °C 31.8 °F /  -0.1 °C 30.14in /  1020.5hPa SE 2.9mph /  4.7km/h 9.0mph /  14.5km/h 17% 0.00in /  0mm 833.0 W/m2
10:40 81.3 °F /  27.4 °C 32.4 °F /  0.2 °C 30.14in /  1020.5hPa SE 2.9mph /  4.7km/h 10.0mph /  16.1km/h 17% 0.00in /  0mm 1018.0 W/m2
10:43 81.7 °F /  27.6 °C 32.5 °F /  0.3 °C 30.14in /  1020.5hPa South 4.9mph /  7.9km/h 9.0mph /  14.5km/h 17% 0.00in /  0mm 1044.0 W/m2
10:48 82.2 °F /  27.9 °C 33.1 °F /  0.6 °C 30.13in /  1020.2hPa ESE 6.0mph /  9.7km/h 11.0mph /  17.7km/h 17% 0.00in /  0mm 694.0 W/m2
10:54 82.2 °F /  27.9 °C 33.1 °F /  0.6 °C 30.14in /  1020.5hPa SSE 8.1mph /  13km/h 11.0mph /  17.7km/h 17% 0.00in /  0mm 694.0 W/m2
10:59 82.2 °F /  27.9 °C 31.6 °F /  -0.2 °C 30.13in /  1020.2hPa SE 8.9mph /  14.3km/h 13.0mph /  20.9km/h 16% 0.00in /  0mm 606.0 W/m2
11:04 82.2 °F /  27.9 °C 33.1 °F /  0.6 °C 30.13in /  1020.2hPa ESE 2.0mph /  3.2km/h 8.0mph /  12.9km/h 17% 0.00in /  0mm 1055.0 W/m2
11:09 82.8 °F /  28.2 °C 32.0 °F /  0 °C 30.13in /  1020.2hPa SE 6.0mph /  9.7km/h 7.0mph /  11.3km/h 16% 0.00in /  0mm 1020.0 W/m2
11:12 83.1 °F /  28.4 °C 32.4 °F /  0.2 °C 30.13in /  1020.2hPa East 4.0mph /  6.4km/h 12.0mph /  19.3km/h 16% 0.00in /  0mm 962.0 W/m2
11:17 83.3 °F /  28.5 °C 30.7 °F /  -0.7 °C 30.13in /  1020.2hPa SSE 8.9mph /  14.3km/h 12.0mph /  19.3km/h 15% 0.00in /  0mm 1049.0 W/m2
11:18 83.3 °F /  28.5 °C 32.4 °F /  0.2 °C 30.13in /  1020.2hPa ESE 8.1mph /  13km/h 12.0mph /  19.3km/h 16% 0.00in /  0mm 1032.0 W/m2
11:23 83.7 °F /  28.7 °C 29.5 °F /  -1.4 °C 30.13in /  1020.2hPa SE 8.9mph /  14.3km/h 11.0mph /  17.7km/h 14% 0.00in /  0mm 1067.0 W/m2
11:28 83.8 °F /  28.8 °C 29.5 °F /  -1.4 °C 30.13in /  1020.2hPa ESE 6.0mph /  9.7km/h 12.0mph /  19.3km/h 14% 0.00in /  0mm 1086.0 W/m2
11:34 84.4 °F /  29.1 °C 30.0 °F /  -1.1 °C 30.14in /  1020.5hPa East 6.9mph /  11.1km/h 15.0mph /  24.1km/h 14% 0.00in /  0mm 1097.0 W/m2
11:39 84.4 °F /  29.1 °C 30.0 °F /  -1.1 °C 30.13in /  1020.2hPa SSE 10.1mph /  16.3km/h 12.0mph /  19.3km/h 14% 0.00in /  0mm 983.0 W/m2
11:45 84.2 °F /  29 °C 31.5 °F /  -0.3 °C 30.14in /  1020.5hPa ESE 8.1mph /  13km/h 13.0mph /  20.9km/h 15% 0.00in /  0mm 826.0 W/m2
11:56 83.8 °F /  28.8 °C 31.3 °F /  -0.4 °C 30.13in /  1020.2hPa SSE 4.9mph /  7.9km/h 11.0mph /  17.7km/h 15% 0.00in /  0mm 965.0 W/m2
12:01 84.4 °F /  29.1 °C 31.6 °F /  -0.2 °C 30.13in /  1020.2hPa SSE 8.1mph /  13km/h 9.0mph /  14.5km/h 15% 0.00in /  0mm 749.0 W/m2
12:06 84.6 °F /  29.2 °C 30.2 °F /  -1 °C 30.13in /  1020.2hPa SE 8.1mph /  13km/h 10.0mph /  16.1km/h 14% 0.00in /  0mm 763.0 W/m2
12:11 84.6 °F /  29.2 °C 33.4 °F /  0.8 °C 30.13in /  1020.2hPa SE 4.9mph /  7.9km/h 11.0mph /  17.7km/h 16% 0.00in /  0mm 905.0 W/m2
12:16 84.7 °F /  29.3 °C 33.6 °F /  0.9 °C 30.13in /  1020.2hPa SE 4.9mph /  7.9km/h 8.0mph /  12.9km/h 16% 0.00in /  0mm 1009.0 W/m2
12:22 85.3 °F /  29.6 °C 34.0 °F /  1.1 °C 30.13in /  1020.2hPa SSW 0.9mph /  1.4km/h 11.0mph /  17.7km/h 16% 0.00in /  0mm 805.0 W/m2
12:28 85.3 °F /  29.6 °C 35.6 °F /  2 °C 30.12in /  1019.9hPa SE 6.9mph /  11.1km/h 9.0mph /  14.5km/h 17% 0.00in /  0mm 860.0 W/m2
12:33 85.5 °F /  29.7 °C 34.2 °F /  1.2 °C 30.12in /  1019.9hPa WSW 4.0mph /  6.4km/h 5.0mph /  8km/h 16% 0.00in /  0mm 744.0 W/m2
12:39 85.3 °F /  29.6 °C 34.0 °F /  1.1 °C 30.12in /  1019.9hPa South 9.0mph /  14.5km/h 9.0mph /  14.5km/h 16% 0.00in /  0mm 585.0 W/m2
12:41 85.3 °F /  29.6 °C 32.4 °F /  0.2 °C 30.12in /  1019.9hPa South 0.9mph /  1.4km/h 3.0mph /  4.8km/h 15% 0.00in /  0mm 780.0 W/m2
12:46 85.3 °F /  29.6 °C 32.4 °F /  0.2 °C 30.12in /  1019.9hPa SE 4.9mph /  7.9km/h 8.0mph /  12.9km/h 15% 0.00in /  0mm 947.0 W/m2
12:47 85.3 °F /  29.6 °C 35.6 °F /  2 °C 30.12in /  1019.9hPa SSW 2.0mph /  3.2km/h 8.0mph /  12.9km/h 17% 0.00in /  0mm 991.0 W/m2
12:52 85.6 °F /  29.8 °C 32.7 °F /  0.4 °C 30.12in /  1019.9hPa South 0.9mph /  1.4km/h 3.0mph /  4.8km/h 15% 0.00in /  0mm 1011.0 W/m2
12:54 85.8 °F /  29.9 °C 32.9 °F /  0.5 °C 30.12in /  1019.9hPa ENE 4.0mph /  6.4km/h 9.0mph /  14.5km/h 15% 0.00in /  0mm 1090.0 W/m2
12:59 86.4 °F /  30.2 °C 33.3 °F /  0.7 °C 30.11in /  1019.5hPa SSE 2.0mph /  3.2km/h 4.0mph /  6.4km/h 15% 0.00in /  0mm 1134.0 W/m2
13:04 86.7 °F /  30.4 °C 31.8 °F /  -0.1 °C 30.11in /  1019.5hPa South 0.9mph /  1.4km/h 8.0mph /  12.9km/h 14% 0.00in /  0mm 1051.0 W/m2
13:10 87.3 °F /  30.7 °C 34.0 °F /  1.1 °C 30.11in /  1019.5hPa SSE 8.9mph /  14.3km/h 9.0mph /  14.5km/h 15% 0.00in /  0mm 953.0 W/m2
13:15 87.3 °F /  30.7 °C 34.0 °F /  1.1 °C 30.11in /  1019.5hPa SSW 0.9mph /  1.4km/h 7.0mph /  11.3km/h 15% 0.00in /  0mm 1023.0 W/m2
13:19 87.1 °F /  30.6 °C 33.8 °F /  1 °C 30.11in /  1019.5hPa WSW 4.0mph /  6.4km/h 6.0mph /  9.7km/h 15% 0.00in /  0mm 1051.0 W/m2
13:24 87.3 °F /  30.7 °C 34.0 °F /  1.1 °C 30.11in /  1019.5hPa ESE 0.9mph /  1.4km/h 5.0mph /  8km/h 15% 0.00in /  0mm 984.0 W/m2
13:29 87.4 °F /  30.8 °C 37.2 °F /  2.9 °C 30.11in /  1019.5hPa South 2.9mph /  4.7km/h 5.0mph /  8km/h 17% 0.00in /  0mm 997.0 W/m2
13:30 87.6 °F /  30.9 °C 36.0 °F /  2.2 °C 30.11in /  1019.5hPa South 2.0mph /  3.2km/h 7.0mph /  11.3km/h 16% 0.00in /  0mm 991.0 W/m2
13:35 88.0 °F /  31.1 °C 34.5 °F /  1.4 °C 30.11in /  1019.5hPa Calm   7.0mph /  11.3km/h 15% 0.00in /  0mm 872.0 W/m2
13:41 88.0 °F /  31.1 °C 36.1 °F /  2.3 °C 30.10in /  1019.2hPa SSE 2.0mph /  3.2km/h 5.0mph /  8km/h 16% 0.00in /  0mm 684.0 W/m2
13:46 87.8 °F /  31 °C 36.0 °F /  2.2 °C 30.10in /  1019.2hPa South 2.9mph /  4.7km/h 8.0mph /  12.9km/h 16% 0.00in /  0mm 759.0 W/m2
13:51 87.6 °F /  30.9 °C 36.0 °F /  2.2 °C 30.10in /  1019.2hPa SE 4.0mph /  6.4km/h 9.0mph /  14.5km/h 16% 0.00in /  0mm 587.0 W/m2
13:55 87.6 °F /  30.9 °C 34.3 °F /  1.3 °C 30.10in /  1019.2hPa SE 4.9mph /  7.9km/h 9.0mph /  14.5km/h 15% 0.00in /  0mm 954.0 W/m2
14:01 88.0 °F /  31.1 °C 34.5 °F /  1.4 °C 30.10in /  1019.2hPa East 2.0mph /  3.2km/h 3.0mph /  4.8km/h 15% 0.00in /  0mm 865.0 W/m2
14:04 88.2 °F /  31.2 °C 34.7 °F /  1.5 °C 30.10in /  1019.2hPa Calm   2.0mph /  3.2km/h 15% 0.00in /  0mm 1055.0 W/m2
14:10 88.5 °F /  31.4 °C 36.7 °F /  2.6 °C 30.10in /  1019.2hPa NE 0.9mph /  1.4km/h 6.0mph /  9.7km/h 16% 0.00in /  0mm 933.0 W/m2
14:15 88.9 °F /  31.6 °C 36.9 °F /  2.7 °C 30.09in /  1018.8hPa SE 6.0mph /  9.7km/h 6.0mph /  9.7km/h 16% 0.00in /  0mm 643.0 W/m2
14:20 88.9 °F /  31.6 °C 35.2 °F /  1.8 °C 30.09in /  1018.8hPa West 0.9mph /  1.4km/h 4.0mph /  6.4km/h 15% 0.00in /  0mm 466.0 W/m2
14:25 88.7 °F /  31.5 °C 35.1 °F /  1.7 °C 30.09in /  1018.8hPa SSW 2.0mph /  3.2km/h 5.0mph /  8km/h 15% 0.00in /  0mm 942.0 W/m2
14:30 88.0 °F /  31.1 °C 34.5 °F /  1.4 °C 30.09in /  1018.8hPa SSW 0.9mph /  1.4km/h 7.0mph /  11.3km/h 15% 0.00in /  0mm 911.0 W/m2
14:35 87.6 °F /  30.9 °C 36.0 °F /  2.2 °C 30.09in /  1018.8hPa SSW 2.9mph /  4.7km/h 4.0mph /  6.4km/h 16% 0.00in /  0mm 1030.0 W/m2
14:41 87.4 °F /  30.8 °C 38.7 °F /  3.7 °C 30.09in /  1018.8hPa SW 2.9mph /  4.7km/h 7.0mph /  11.3km/h 18% 0.00in /  0mm 1000.0 W/m2
14:46 87.6 °F /  30.9 °C 37.4 °F /  3 °C 30.08in /  1018.5hPa South 2.9mph /  4.7km/h 8.0mph /  12.9km/h 17% 0.00in /  0mm 974.0 W/m2
14:52 87.6 °F /  30.9 °C 37.4 °F /  3 °C 30.08in /  1018.5hPa SSW 2.9mph /  4.7km/h 6.0mph /  9.7km/h 17% 0.00in /  0mm 962.0 W/m2
14:54 87.4 °F /  30.8 °C 38.7 °F /  3.7 °C 30.08in /  1018.5hPa SSW 2.9mph /  4.7km/h 5.0mph /  8km/h 18% 0.00in /  0mm 954.0 W/m2
14:59 87.8 °F /  31 °C 37.6 °F /  3.1 °C 30.08in /  1018.5hPa SW 4.9mph /  7.9km/h 8.0mph /  12.9km/h 17% 0.00in /  0mm 947.0 W/m2
15:04 88.2 °F /  31.2 °C 36.3 °F /  2.4 °C 30.08in /  1018.5hPa WSW 6.9mph /  11.1km/h 8.0mph /  12.9km/h 16% 0.00in /  0mm 930.0 W/m2
15:09 88.0 °F /  31.1 °C 36.1 °F /  2.3 °C 30.07in /  1018.2hPa SW 4.0mph /  6.4km/h 6.0mph /  9.7km/h 16% 0.00in /  0mm 926.0 W/m2
15:14 88.2 °F /  31.2 °C 37.9 °F /  3.3 °C 30.07in /  1018.2hPa WSW 0.9mph /  1.4km/h 2.0mph /  3.2km/h 17% 0.00in /  0mm 923.0 W/m2
15:19 89.1 °F /  31.7 °C 37.0 °F /  2.8 °C 30.07in /  1018.2hPa South 0.9mph /  1.4km/h 4.0mph /  6.4km/h 16% 0.00in /  0mm 900.0 W/m2
15:24 89.8 °F /  32.1 °C 36.0 °F /  2.2 °C 30.07in /  1018.2hPa SSW 6.9mph /  11.1km/h 7.0mph /  11.3km/h 15% 0.00in /  0mm 860.0 W/m2
15:27 89.8 °F /  32.1 °C 37.6 °F /  3.1 °C 30.07in /  1018.2hPa WSW 6.9mph /  11.1km/h 9.0mph /  14.5km/h 16% 0.00in /  0mm 863.0 W/m2
15:32 89.8 °F /  32.1 °C 37.6 °F /  3.1 °C 30.06in /  1017.8hPa East 2.0mph /  3.2km/h 3.0mph /  4.8km/h 16% 0.00in /  0mm 636.0 W/m2
15:34 90.0 °F /  32.2 °C 36.1 °F /  2.3 °C 30.06in /  1017.8hPa Calm   3.0mph /  4.8km/h 15% 0.00in /  0mm 691.0 W/m2
15:39 90.0 °F /  32.2 °C 36.1 °F /  2.3 °C 30.06in /  1017.8hPa NW 2.9mph /  4.7km/h 4.0mph /  6.4km/h 15% 0.00in /  0mm 657.0 W/m2
15:44 90.1 °F /  32.3 °C 36.3 °F /  2.4 °C 30.06in /  1017.8hPa West 2.9mph /  4.7km/h 8.0mph /  12.9km/h 15% 0.00in /  0mm 803.0 W/m2
15:48 90.1 °F /  32.3 °C 36.3 °F /  2.4 °C 30.06in /  1017.8hPa SSW 2.0mph /  3.2km/h 7.0mph /  11.3km/h 15% 0.00in /  0mm 849.0 W/m2
15:54 90.0 °F /  32.2 °C 36.1 °F /  2.3 °C 30.05in /  1017.5hPa SW 6.0mph /  9.7km/h 9.0mph /  14.5km/h 15% 0.00in /  0mm 826.0 W/m2
15:56 89.8 °F /  32.1 °C 36.0 °F /  2.2 °C 30.05in /  1017.5hPa WNW 2.0mph /  3.2km/h 5.0mph /  8km/h 15% 0.00in /  0mm 803.0 W/m2
16:01 90.1 °F /  32.3 °C 37.9 °F /  3.3 °C 30.05in /  1017.5hPa WSW 0.9mph /  1.4km/h 5.0mph /  8km/h 16% 0.00in /  0mm 696.0 W/m2
16:06 90.5 °F /  32.5 °C 38.1 °F /  3.4 °C 30.05in /  1017.5hPa West 0.9mph /  1.4km/h 6.0mph /  9.7km/h 16% 0.00in /  0mm 772.0 W/m2
16:12 90.9 °F /  32.7 °C 35.1 °F /  1.7 °C 30.04in /  1017.2hPa WNW 2.9mph /  4.7km/h 5.0mph /  8km/h 14% 0.00in /  0mm 766.0 W/m2
16:17 91.8 °F /  33.2 °C 37.6 °F /  3.1 °C 30.04in /  1017.2hPa SSW 2.9mph /  4.7km/h 3.0mph /  4.8km/h 15% 0.00in /  0mm 726.0 W/m2
16:22 91.8 °F /  33.2 °C 37.6 °F /  3.1 °C 30.04in /  1017.2hPa WSW 2.0mph /  3.2km/h 5.0mph /  8km/h 15% 0.00in /  0mm 714.0 W/m2
16:28 91.9 °F /  33.3 °C 36.0 °F /  2.2 °C 30.03in /  1016.8hPa SSW 2.9mph /  4.7km/h 5.0mph /  8km/h 14% 0.00in /  0mm 691.0 W/m2
16:33 92.1 °F /  33.4 °C 34.2 °F /  1.2 °C 30.03in /  1016.8hPa WSW 2.0mph /  3.2km/h 5.0mph /  8km/h 13% 0.00in /  0mm 673.0 W/m2
16:38 91.9 °F /  33.3 °C 36.0 °F /  2.2 °C 30.03in /  1016.8hPa WSW 0.9mph /  1.4km/h 4.0mph /  6.4km/h 14% 0.00in /  0mm 654.0 W/m2
16:39 91.9 °F /  33.3 °C 36.0 °F /  2.2 °C 30.03in /  1016.8hPa SE 4.0mph /  6.4km/h 8.0mph /  12.9km/h 14% 0.00in /  0mm 647.0 W/m2
16:44 92.1 °F /  33.4 °C 36.1 °F /  2.3 °C 30.03in /  1016.8hPa SE 4.9mph /  7.9km/h 10.0mph /  16.1km/h 14% 0.00in /  0mm 631.0 W/m2
16:50 92.1 °F /  33.4 °C 34.2 °F /  1.2 °C 30.03in /  1016.8hPa Calm   9.0mph /  14.5km/h 13% 0.00in /  0mm 612.0 W/m2
16:55 92.3 °F /  33.5 °C 34.3 °F /  1.3 °C 30.03in /  1016.8hPa Calm   4.0mph /  6.4km/h 13% 0.00in /  0mm 598.0 W/m2
16:59 92.3 °F /  33.5 °C 34.3 °F /  1.3 °C 30.03in /  1016.8hPa Calm   2.0mph /  3.2km/h 13% 0.00in /  0mm 589.0 W/m2
17:04 92.7 °F /  33.7 °C 34.7 °F /  1.5 °C 30.03in /  1016.8hPa SE 0.9mph /  1.4km/h 6.0mph /  9.7km/h 13% 0.00in /  0mm 554.0 W/m2
17:09 92.8 °F /  33.8 °C 32.7 °F /  0.4 °C 30.02in /  1016.5hPa NW 2.0mph /  3.2km/h 2.0mph /  3.2km/h 12% 0.00in /  0mm 450.0 W/m2
17:15 92.8 °F /  33.8 °C 32.7 °F /  0.4 °C 30.02in /  1016.5hPa North 2.0mph /  3.2km/h 2.0mph /  3.2km/h 12% 0.00in /  0mm 517.0 W/m2
17:21 93.2 °F /  34 °C 33.1 °F /  0.6 °C 30.02in /  1016.5hPa Calm   4.0mph /  6.4km/h 12% 0.00in /  0mm 408.0 W/m2
17:26 93.6 °F /  34.2 °C 35.4 °F /  1.9 °C 30.02in /  1016.5hPa ESE 2.9mph /  4.7km/h 3.0mph /  4.8km/h 13% 0.00in /  0mm 343.0 W/m2
17:31 93.6 °F /  34.2 °C 35.4 °F /  1.9 °C 30.02in /  1016.5hPa Calm   2.0mph /  3.2km/h 13% 0.00in /  0mm 420.0 W/m2
17:37 93.6 °F /  34.2 °C 35.4 °F /  1.9 °C 30.02in /  1016.5hPa SSE 2.9mph /  4.7km/h 6.0mph /  9.7km/h 13% 0.00in /  0mm 450.0 W/m2
17:42 92.8 °F /  33.8 °C 32.7 °F /  0.4 °C 30.02in /  1016.5hPa East 2.0mph /  3.2km/h 5.0mph /  8km/h 12% 0.00in /  0mm 424.0 W/m2
17:47 92.3 °F /  33.5 °C 34.3 °F /  1.3 °C 30.02in /  1016.5hPa East 0.9mph /  1.4km/h 2.0mph /  3.2km/h 13% 0.00in /  0mm 394.0 W/m2
17:49 92.5 °F /  33.6 °C 34.5 °F /  1.4 °C 30.02in /  1016.5hPa ESE 0.9mph /  1.4km/h 5.0mph /  8km/h 13% 0.00in /  0mm 401.0 W/m2
17:54 93.0 °F /  33.9 °C 34.9 °F /  1.6 °C 30.02in /  1016.5hPa NNE 2.0mph /  3.2km/h 5.0mph /  8km/h 13% 0.00in /  0mm 385.0 W/m2
18:00 93.4 °F /  34.1 °C 35.2 °F /  1.8 °C 30.02in /  1016.5hPa SE 4.0mph /  6.4km/h 4.0mph /  6.4km/h 13% 0.00in /  0mm 359.0 W/m2
18:05 93.4 °F /  34.1 °C 33.3 °F /  0.7 °C 30.02in /  1016.5hPa SE 0.9mph /  1.4km/h 2.0mph /  3.2km/h 12% 0.00in /  0mm 322.0 W/m2
18:10 93.6 °F /  34.2 °C 33.3 °F /  0.7 °C 30.01in /  1016.1hPa SE 2.0mph /  3.2km/h 3.0mph /  4.8km/h 12% 0.00in /  0mm 283.0 W/m2
18:16 93.7 °F /  34.3 °C 33.4 °F /  0.8 °C 30.01in /  1016.1hPa SSW 2.9mph /  4.7km/h 3.0mph /  4.8km/h 12% 0.00in /  0mm 225.0 W/m2
18:26 93.6 °F /  34.2 °C 33.3 °F /  0.7 °C 30.02in /  1016.5hPa SE 2.9mph /  4.7km/h 7.0mph /  11.3km/h 12% 0.00in /  0mm 243.0 W/m2
18:31 92.8 °F /  33.8 °C 32.7 °F /  0.4 °C 30.01in /  1016.1hPa SSE 2.0mph /  3.2km/h 3.0mph /  4.8km/h 12% 0.00in /  0mm 181.0 W/m2
18:36 92.5 °F /  33.6 °C 34.5 °F /  1.4 °C 30.01in /  1016.1hPa SE 0.9mph /  1.4km/h 5.0mph /  8km/h 13% 0.00in /  0mm 109.0 W/m2
18:42 91.6 °F /  33.1 °C 33.8 °F /  1 °C 30.01in /  1016.1hPa Calm   2.0mph /  3.2km/h 13% 0.00in /  0mm 39.0 W/m2
18:48 91.0 °F /  32.8 °C 33.4 °F /  0.8 °C 30.01in /  1016.1hPa SE 0.9mph /  1.4km/h 3.0mph /  4.8km/h 13% 0.00in /  0mm 30.0 W/m2
18:53 90.3 °F /  32.4 °C 36.3 °F /  2.4 °C 30.01in /  1016.1hPa Calm   5.0mph /  8km/h 15% 0.00in /  0mm 28.0 W/m2
18:58 89.8 °F /  32.1 °C 34.2 °F /  1.2 °C 30.02in /  1016.5hPa ESE 0.9mph /  1.4km/h 3.0mph /  4.8km/h 14% 0.00in /  0mm 23.0 W/m2
19:04 89.2 °F /  31.8 °C 33.8 °F /  1 °C 30.02in /  1016.5hPa SSE 0.9mph /  1.4km/h 1.0mph /  1.6km/h 14% 0.00in /  0mm 16.0 W/m2
19:09 88.9 °F /  31.6 °C 35.2 °F /  1.8 °C 30.02in /  1016.5hPa SE 2.0mph /  3.2km/h 4.0mph /  6.4km/h 15% 0.00in /  0mm 21.0 W/m2
19:14 88.3 °F /  31.3 °C 34.9 °F /  1.6 °C 30.02in /  1016.5hPa Calm   2.0mph /  3.2km/h 15% 0.00in /  0mm 14.0 W/m2
19:19 87.8 °F /  31 °C 36.0 °F /  2.2 °C 30.03in /  1016.8hPa Calm   1.0mph /  1.6km/h 16% 0.00in /  0mm 14.0 W/m2
19:24 86.7 °F /  30.4 °C 35.2 °F /  1.8 °C 30.03in /  1016.8hPa Calm   4.0mph /  6.4km/h 16% 0.00in /  0mm 14.0 W/m2
19:29 85.8 °F /  29.9 °C 32.9 °F /  0.5 °C 30.03in /  1016.8hPa Calm   4.0mph /  6.4km/h 15% 0.00in /  0mm 11.0 W/m2
19:34 84.9 °F /  29.4 °C 32.2 °F /  0.1 °C 30.03in /  1016.8hPa West 4.9mph /  7.9km/h 8.0mph /  12.9km/h 15% 0.00in /  0mm 7.0 W/m2
19:39 84.0 °F /  28.9 °C 33.1 °F /  0.6 °C 30.04in /  1017.2hPa West 4.9mph /  7.9km/h 7.0mph /  11.3km/h 16% 0.00in /  0mm 7.0 W/m2
19:44 83.5 °F /  28.6 °C 32.5 °F /  0.3 °C 30.04in /  1017.2hPa NW 2.9mph /  4.7km/h 4.0mph /  6.4km/h 16% 0.00in /  0mm 5.0 W/m2
19:50 82.9 °F /  28.3 °C 32.2 °F /  0.1 °C 30.05in /  1017.5hPa WSW 4.9mph /  7.9km/h 12.0mph /  19.3km/h 16% 0.00in /  0mm 0.0 W/m2
19:55 82.8 °F /  28.2 °C 33.4 °F /  0.8 °C 30.05in /  1017.5hPa West 6.0mph /  9.7km/h 6.0mph /  9.7km/h 17% 0.00in /  0mm 0.0 W/m2
20:00 82.2 °F /  27.9 °C 33.1 °F /  0.6 °C 30.05in /  1017.5hPa SW 2.0mph /  3.2km/h 7.0mph /  11.3km/h 17% 0.00in /  0mm 0.0 W/m2
20:05 82.0 °F /  27.8 °C 34.3 °F /  1.3 °C 30.05in /  1017.5hPa West 0.9mph /  1.4km/h 3.0mph /  4.8km/h 18% 0.00in /  0mm 0.0 W/m2
20:15 81.3 °F /  27.4 °C 33.8 °F /  1 °C 30.05in /  1017.5hPa West 2.0mph /  3.2km/h 7.0mph /  11.3km/h 18% 0.00in /  0mm 0.0 W/m2
20:21 81.1 °F /  27.3 °C 33.6 °F /  0.9 °C 30.05in /  1017.5hPa WSW 0.9mph /  1.4km/h 5.0mph /  8km/h 18% 0.00in /  0mm 0.0 W/m2
20:26 81.0 °F /  27.2 °C 34.9 °F /  1.6 °C 30.06in /  1017.8hPa Calm   2.0mph /  3.2km/h 19% 0.00in /  0mm 0.0 W/m2
20:28 80.8 °F /  27.1 °C 34.7 °F /  1.5 °C 30.06in /  1017.8hPa Calm     19% 0.00in /  0mm 0.0 W/m2
20:33 80.6 °F /  27 °C 33.3 °F /  0.7 °C 30.06in /  1017.8hPa West 7.0mph /  11.3km/h 7.0mph /  11.3km/h 18% 0.00in /  0mm 0.0 W/m2
20:40 80.1 °F /  26.7 °C 34.2 °F /  1.2 °C 30.06in /  1017.8hPa WSW 4.0mph /  6.4km/h 8.0mph /  12.9km/h 19% 0.00in /  0mm 0.0 W/m2
20:45 79.7 °F /  26.5 °C 35.1 °F /  1.7 °C 30.07in /  1018.2hPa South 2.0mph /  3.2km/h 5.0mph /  8km/h 20% 0.00in /  0mm 0.0 W/m2
20:46 79.5 °F /  26.4 °C 33.6 °F /  0.9 °C 30.07in /  1018.2hPa SSW 2.9mph /  4.7km/h 7.0mph /  11.3km/h 19% 0.00in /  0mm 0.0 W/m2
20:50 79.3 °F /  26.3 °C 33.4 °F /  0.8 °C 30.07in /  1018.2hPa SW 2.9mph /  4.7km/h 6.0mph /  9.7km/h 19% 0.00in /  0mm 0.0 W/m2
20:56 79.2 °F /  26.2 °C 33.4 °F /  0.8 °C 30.07in /  1018.2hPa Calm   8.0mph /  12.9km/h 19% 0.00in /  0mm 0.0 W/m2
21:00 79.0 °F /  26.1 °C 34.5 °F /  1.4 °C 30.08in /  1018.5hPa SW 4.0mph /  6.4km/h 6.0mph /  9.7km/h 20% 0.00in /  0mm 0.0 W/m2
21:05 78.8 °F /  26 °C 34.3 °F /  1.3 °C 30.08in /  1018.5hPa South 0.9mph /  1.4km/h 4.0mph /  6.4km/h 20% 0.00in /  0mm 0.0 W/m2
21:11 78.4 °F /  25.8 °C 34.0 °F /  1.1 °C 30.08in /  1018.5hPa Calm   5.0mph /  8km/h 20% 0.00in /  0mm 0.0 W/m2
21:16 78.3 °F /  25.7 °C 34.0 °F /  1.1 °C 30.08in /  1018.5hPa Calm   6.0mph /  9.7km/h 20% 0.00in /  0mm 0.0 W/m2
21:19 78.3 °F /  25.7 °C 34.0 °F /  1.1 °C 30.09in /  1018.8hPa Calm   3.0mph /  4.8km/h 20% 0.00in /  0mm 0.0 W/m2
21:24 77.9 °F /  25.5 °C 34.9 °F /  1.6 °C 30.08in /  1018.5hPa West 0.9mph /  1.4km/h 3.0mph /  4.8km/h 21% 0.00in /  0mm 0.0 W/m2
21:25 77.7 °F /  25.4 °C 34.7 °F /  1.5 °C 30.08in /  1018.5hPa Calm   3.0mph /  4.8km/h 21% 0.00in /  0mm 0.0 W/m2
21:30 77.5 °F /  25.3 °C 34.5 °F /  1.4 °C 30.08in /  1018.5hPa Calm     21% 0.00in /  0mm 0.0 W/m2
21:36 77.4 °F /  25.2 °C 35.6 °F /  2 °C 30.08in /  1018.5hPa Calm     22% 0.00in /  0mm 0.0 W/m2
21:41 77.0 °F /  25 °C 35.2 °F /  1.8 °C 30.09in /  1018.8hPa Calm   2.0mph /  3.2km/h 22% 0.00in /  0mm 0.0 W/m2
21:46 76.6 °F /  24.8 °C 36.1 °F /  2.3 °C 30.09in /  1018.8hPa Calm   1.0mph /  1.6km/h 23% 0.00in /  0mm 0.0 W/m2
21:52 76.3 °F /  24.6 °C 35.8 °F /  2.1 °C 30.08in /  1018.5hPa Calm   2.0mph /  3.2km/h 23% 0.00in /  0mm 0.0 W/m2
21:57 75.9 °F /  24.4 °C 34.3 °F /  1.3 °C 30.08in /  1018.5hPa Calm   2.0mph /  3.2km/h 22% 0.00in /  0mm 0.0 W/m2
22:02 75.7 °F /  24.3 °C 35.2 °F /  1.8 °C 30.08in /  1018.5hPa South 0.9mph /  1.4km/h 1.0mph /  1.6km/h 23% 0.00in /  0mm 0.0 W/m2
22:03 75.6 °F /  24.2 °C 35.2 °F /  1.8 °C 30.08in /  1018.5hPa Calm   2.0mph /  3.2km/h 23% 0.00in /  0mm 0.0 W/m2
22:10 75.4 °F /  24.1 °C 34.0 °F /  1.1 °C 30.08in /  1018.5hPa Calm   5.0mph /  8km/h 22% 0.00in /  0mm 0.0 W/m2
22:16 75.2 °F /  24 °C 34.9 °F /  1.6 °C 30.08in /  1018.5hPa SE 4.0mph /  6.4km/h 4.0mph /  6.4km/h 23% 0.00in /  0mm 0.0 W/m2
22:22 75.0 °F /  23.9 °C 34.7 °F /  1.5 °C 30.08in /  1018.5hPa SE 0.9mph /  1.4km/h 5.0mph /  8km/h 23% 0.00in /  0mm 0.0 W/m2
22:26 75.0 °F /  23.9 °C 34.7 °F /  1.5 °C 30.08in /  1018.5hPa Calm   6.0mph /  9.7km/h 23% 0.00in /  0mm 0.0 W/m2
22:32 75.0 °F /  23.9 °C 34.7 °F /  1.5 °C 30.08in /  1018.5hPa SW 4.0mph /  6.4km/h 9.0mph /  14.5km/h 23% 0.00in /  0mm 0.0 W/m2
22:37 75.0 °F /  23.9 °C 33.6 °F /  0.9 °C 30.09in /  1018.8hPa SSE 4.9mph /  7.9km/h 10.0mph /  16.1km/h 22% 0.00in /  0mm 0.0 W/m2
22:39 75.2 °F /  24 °C 33.8 °F /  1 °C 30.08in /  1018.5hPa South 4.9mph /  7.9km/h 8.0mph /  12.9km/h 22% 0.00in /  0mm 0.0 W/m2
22:44 75.4 °F /  24.1 °C 34.0 °F /  1.1 °C 30.09in /  1018.8hPa SE 6.0mph /  9.7km/h 11.0mph /  17.7km/h 22% 0.00in /  0mm 0.0 W/m2
22:50 75.4 °F /  24.1 °C 34.0 °F /  1.1 °C 30.09in /  1018.8hPa Calm   9.0mph /  14.5km/h 22% 0.00in /  0mm 0.0 W/m2
22:55 75.4 °F /  24.1 °C 35.1 °F /  1.7 °C 30.09in /  1018.8hPa SSE 6.9mph /  11.1km/h 7.0mph /  11.3km/h 23% 0.00in /  0mm 0.0 W/m2
23:00 75.4 °F /  24.1 °C 35.1 °F /  1.7 °C 30.09in /  1018.8hPa South 2.9mph /  4.7km/h 6.0mph /  9.7km/h 23% 0.00in /  0mm 0.0 W/m2
23:04 75.4 °F /  24.1 °C 35.1 °F /  1.7 °C 30.09in /  1018.8hPa Calm   8.0mph /  12.9km/h 23% 0.00in /  0mm 0.0 W/m2
23:09 75.2 °F /  24 °C 34.9 °F /  1.6 °C 30.09in /  1018.8hPa South 2.9mph /  4.7km/h 10.0mph /  16.1km/h 23% 0.00in /  0mm 0.0 W/m2
23:20 75.4 °F /  24.1 °C 35.1 °F /  1.7 °C 30.09in /  1018.8hPa ESE 4.0mph /  6.4km/h 8.0mph /  12.9km/h 23% 0.00in /  0mm 0.0 W/m2
23:25 75.2 °F /  24 °C 34.9 °F /  1.6 °C 30.09in /  1018.8hPa SSE 2.9mph /  4.7km/h 9.0mph /  14.5km/h 23% 0.00in /  0mm 0.0 W/m2
23:30 75.2 °F /  24 °C 34.9 °F /  1.6 °C 30.10in /  1019.2hPa SE 2.9mph /  4.7km/h 6.0mph /  9.7km/h 23% 0.00in /  0mm 0.0 W/m2
23:35 75.0 °F /  23.9 °C 35.8 °F /  2.1 °C 30.10in /  1019.2hPa SSE 2.9mph /  4.7km/h 5.0mph /  8km/h 24% 0.00in /  0mm 0.0 W/m2
23:40 74.8 °F /  23.8 °C 35.6 °F /  2 °C 30.10in /  1019.2hPa ESE 2.0mph /  3.2km/h 5.0mph /  8km/h 24% 0.00in /  0mm 0.0 W/m2
23:45 74.7 °F /  23.7 °C 36.5 °F /  2.5 °C 30.11in /  1019.5hPa East 0.9mph /  1.4km/h 6.0mph /  9.7km/h 25% 0.00in /  0mm 0.0 W/m2
23:51 74.7 °F /  23.7 °C 35.4 °F /  1.9 °C 30.11in /  1019.5hPa Calm     24% 0.00in /  0mm 0.0 W/m2
23:56 74.7 °F /  23.7 °C 36.5 °F /  2.5 °C 30.11in /  1019.5hPa Calm   1.0mph /  1.6km/h 25% 0.00in /  0mm 0.0 W/m2
Olympia, Windhoek, Namibia
Compliments of Weather Underground - 3.5 mb